Time;durP1;ratioP1;P1;durP2;ratioP2;P2;SDS_P1;SDS_P2;PMS_P1;PMS_P2;Temp;Humidity;BMP_temperature;BMP_pressure;BME280_temperature;BME280_humidity;BME280_pressure;Samples;Min_cycle;Max_cycle;Signal;HPM_P1;HPM_P2
2021/06/28 00:01:40;;;;;;;4.57;4.17;;;;;;;;;;5033557;28;20449;-58
2021/06/28 00:04:07;;;;;;;4.00;3.70;;;;;;;;;;5033483;28;20499;-59
2021/06/28 00:06:34;;;;;;;4.87;3.97;;;;;;;;;;5033485;28;20925;-58
2021/06/28 00:09:01;;;;;;;4.83;4.00;;;;;;;;;;5032978;28;20446;-59
2021/06/28 00:11:29;;;;;;;4.20;3.80;;;;;;;;;;5033383;28;20456;-58
2021/06/28 00:13:56;;;;;;;4.20;3.90;;;;;;;;;;5033328;28;20527;-58
2021/06/28 00:16:24;;;;;;;4.63;3.77;;;;;;;;;;5033407;28;20449;-59
2021/06/28 00:18:53;;;;;;;4.50;4.10;;;;;;;;;;5033296;28;20496;-59
2021/06/28 00:21:21;;;;;;;4.30;3.90;;;;;;;;;;5033307;28;20484;-59
2021/06/28 00:23:49;;;;;;;3.90;3.60;;;;;;;;;;5035271;28;20514;-59
2021/06/28 00:26:16;;;;;;;3.80;3.50;;;;;;;;;;5037423;28;20496;-59
2021/06/28 00:28:43;;;;;;;4.57;4.00;;;;;;;;;;5037066;28;20925;-59
2021/06/28 00:31:11;;;;;;;3.90;3.60;;;;;;;;;;5036885;28;20524;-58
2021/06/28 00:33:38;;;;;;;4.20;3.80;;;;;;;;;;5037387;28;20477;-59
2021/06/28 00:36:07;;;;;;;4.07;3.70;;;;;;;;;;5037046;28;20449;-59
2021/06/28 00:38:34;;;;;;;4.93;3.63;;;;;;;;;;5037008;28;20444;-59
2021/06/28 00:41:01;;;;;;;6.80;4.00;;;;;;;;;;5036534;28;20477;-59
2021/06/28 00:43:29;;;;;;;4.80;3.50;;;;;;;;;;5037643;28;20449;-59
2021/06/28 00:45:56;;;;;;;5.37;4.23;;;;;;;;;;5036650;28;20995;-59
2021/06/28 00:48:23;;;;;;;4.30;3.90;;;;;;;;;;5036546;28;20449;-59
2021/06/28 00:50:51;;;;;;;6.00;4.37;;;;;;;;;;5036753;28;20465;-58
2021/06/28 00:53:21;;;;;;;4.10;3.70;;;;;;;;;;5036768;28;20508;-58
2021/06/28 00:55:48;;;;;;;4.33;3.93;;;;;;;;;;5036496;28;21001;-58
2021/06/28 00:58:16;;;;;;;4.10;3.70;;;;;;;;;;5036742;28;20858;-58
2021/06/28 01:00:43;;;;;;;5.03;4.63;;;;;;;;;;5036579;28;20469;-58
2021/06/28 01:03:11;;;;;;;4.80;4.10;;;;;;;;;;5036703;28;20453;-58
2021/06/28 01:05:39;;;;;;;4.50;4.10;;;;;;;;;;5036293;28;20499;-57
2021/06/28 01:08:07;;;;;;;4.30;3.90;;;;;;;;;;5036582;28;20456;-58
2021/06/28 01:10:37;;;;;;;4.23;3.83;;;;;;;;;;5036753;28;20472;-59
2021/06/28 01:13:05;;;;;;;4.47;4.17;;;;;;;;;;5036696;28;20492;-59
2021/06/28 01:15:32;;;;;;;7.90;3.87;;;;;;;;;;5036698;28;20445;-59
2021/06/28 01:18:00;;;;;;;4.87;4.40;;;;;;;;;;5036522;28;20449;-58
2021/06/28 01:20:28;;;;;;;4.90;4.20;;;;;;;;;;5035921;28;21043;-59
2021/06/28 01:22:57;;;;;;;3.90;3.50;;;;;;;;;;5035910;28;20931;-58
2021/06/28 01:25:27;;;;;;;4.90;4.43;;;;;;;;;;5036311;28;20456;-58
2021/06/28 01:27:54;;;;;;;4.10;3.80;;;;;;;;;;5036674;28;20464;-59
2021/06/28 01:30:22;;;;;;;7.67;4.37;;;;;;;;;;5036338;28;20522;-59
2021/06/28 01:32:50;;;;;;;4.23;3.83;;;;;;;;;;5036233;28;20532;-58
2021/06/28 01:35:17;;;;;;;4.97;3.60;;;;;;;;;;5035074;28;20449;-58
2021/06/28 01:37:46;;;;;;;4.50;3.67;;;;;;;;;;5035747;28;20445;-59
2021/06/28 01:40:14;;;;;;;8.47;4.40;;;;;;;;;;5035543;28;20503;-59
2021/06/28 01:42:43;;;;;;;4.80;4.40;;;;;;;;;;5035998;28;20453;-59
2021/06/28 01:45:12;;;;;;;5.17;3.90;;;;;;;;;;5036083;28;20445;-58
2021/06/28 01:47:39;;;;;;;4.40;4.00;;;;;;;;;;5035799;28;20445;-59
2021/06/28 01:50:08;;;;;;;4.13;3.73;;;;;;;;;;5035364;28;21046;-58
2021/06/28 01:52:35;;;;;;;4.50;3.83;;;;;;;;;;5036702;28;20467;-58
2021/06/28 01:55:04;;;;;;;5.00;4.27;;;;;;;;;;5035604;28;20445;-58
2021/06/28 01:57:32;;;;;;;4.60;3.97;;;;;;;;;;5035743;28;20453;-58
2021/06/28 02:00:01;;;;;;;4.67;4.20;;;;;;;;;;5035711;28;20519;-59
2021/06/28 02:02:28;;;;;;;4.70;4.23;;;;;;;;;;5035611;28;20449;-58
2021/06/28 02:04:55;;;;;;;4.53;4.13;;;;;;;;;;5035614;28;20452;-58
2021/06/28 02:07:24;;;;;;;5.93;4.67;;;;;;;;;;5035512;28;20874;-58
2021/06/28 02:09:51;;;;;;;4.40;4.00;;;;;;;;;;5035413;28;20477;-59
2021/06/28 02:12:19;;;;;;;6.33;4.23;;;;;;;;;;5035448;28;20453;-59
2021/06/28 02:14:46;;;;;;;4.60;4.20;;;;;;;;;;5035437;28;20481;-58
2021/06/28 02:17:14;;;;;;;5.00;4.53;;;;;;;;;;5035412;28;20528;-58
2021/06/28 02:19:42;;;;;;;5.27;4.77;;;;;;;;;;5035210;28;20519;-58
2021/06/28 02:22:09;;;;;;;4.57;4.17;;;;;;;;;;5035230;28;20449;-59
2021/06/28 02:24:36;;;;;;;5.30;4.33;;;;;;;;;;5034915;28;20960;-57
2021/06/28 02:27:04;;;;;;;5.07;4.30;;;;;;;;;;5035117;28;20450;-58
2021/06/28 02:29:31;;;;;;;6.07;4.40;;;;;;;;;;5035014;28;20516;-58
2021/06/28 02:32:00;;;;;;;5.87;4.50;;;;;;;;;;5034943;28;20446;-59
2021/06/28 02:34:29;;;;;;;4.40;4.00;;;;;;;;;;5034821;28;20487;-59
2021/06/28 02:36:56;;;;;;;6.93;4.50;;;;;;;;;;5034908;28;20437;-58
2021/06/28 02:39:23;;;;;;;4.90;4.50;;;;;;;;;;5034757;28;20562;-59
2021/06/28 02:41:51;;;;;;;5.73;4.67;;;;;;;;;;5034843;28;20437;-58
2021/06/28 02:44:19;;;;;;;4.90;4.50;;;;;;;;;;5034625;28;20491;-58
2021/06/28 02:46:46;;;;;;;5.37;4.53;;;;;;;;;;5034591;28;20453;-59
2021/06/28 02:49:13;;;;;;;5.67;4.63;;;;;;;;;;5035025;28;20467;-59
2021/06/28 02:51:42;;;;;;;7.90;4.60;;;;;;;;;;5034842;28;20453;-58
2021/06/28 02:54:09;;;;;;;5.53;4.50;;;;;;;;;;5034708;28;20476;-58
2021/06/28 02:56:36;;;;;;;4.60;4.20;;;;;;;;;;5034570;28;20449;-58
2021/06/28 02:59:04;;;;;;;5.50;4.03;;;;;;;;;;5034350;28;20449;-59
2021/06/28 03:01:31;;;;;;;5.30;4.50;;;;;;;;;;5034316;28;20453;-58
2021/06/28 03:03:58;;;;;;;7.17;4.70;;;;;;;;;;5034013;28;20945;-58
2021/06/28 03:06:26;;;;;;;5.60;4.67;;;;;;;;;;5034200;28;20441;-58
2021/06/28 03:08:54;;;;;;;5.10;4.30;;;;;;;;;;5035952;28;20458;-58
2021/06/28 03:11:22;;;;;;;4.70;4.30;;;;;;;;;;5034807;28;20469;-58
2021/06/28 03:13:49;;;;;;;5.67;4.90;;;;;;;;;;5034223;28;20547;-58
2021/06/28 03:16:16;;;;;;;5.27;4.77;;;;;;;;;;5034335;28;20445;-58
2021/06/28 03:18:44;;;;;;;7.60;5.27;;;;;;;;;;5034332;28;20503;-58
2021/06/28 03:21:12;;;;;;;4.80;4.30;;;;;;;;;;5034566;28;20523;-58
2021/06/28 03:23:39;;;;;;;4.80;4.40;;;;;;;;;;5034199;28;20521;-58
2021/06/28 03:26:08;;;;;;;5.83;4.60;;;;;;;;;;5033951;28;20937;-58
2021/06/28 03:28:36;;;;;;;6.43;4.83;;;;;;;;;;5034104;28;20453;-58
2021/06/28 03:31:03;;;;;;;6.40;5.13;;;;;;;;;;5033412;28;21047;-59
2021/06/28 03:33:31;;;;;;;5.23;4.73;;;;;;;;;;5033731;28;20554;-57
2021/06/28 03:35:58;;;;;;;5.50;4.70;;;;;;;;;;5033542;28;20933;-57
2021/06/28 03:38:25;;;;;;;5.33;4.80;;;;;;;;;;5033778;28;20453;-58
2021/06/28 03:40:53;;;;;;;5.30;4.80;;;;;;;;;;5033046;28;20473;-59
2021/06/28 03:43:21;;;;;;;5.33;4.77;;;;;;;;;;5033633;28;20445;-59
2021/06/28 03:45:49;;;;;;;6.73;4.80;;;;;;;;;;5033561;28;20444;-59
2021/06/28 03:48:16;;;;;;;4.60;4.20;;;;;;;;;;5033378;28;20457;-59
2021/06/28 03:50:43;;;;;;;6.40;5.17;;;;;;;;;;5033425;28;20504;-59
2021/06/28 03:53:11;;;;;;;6.47;5.47;;;;;;;;;;5033177;28;20460;-59
2021/06/28 03:55:38;;;;;;;5.60;4.77;;;;;;;;;;5033430;28;20481;-59
2021/06/28 03:58:05;;;;;;;8.80;5.43;;;;;;;;;;5033095;28;20449;-59
2021/06/28 04:00:34;;;;;;;6.90;5.10;;;;;;;;;;5032968;28;21035;-58
2021/06/28 04:03:02;;;;;;;5.67;5.03;;;;;;;;;;5033438;28;20448;-58
2021/06/28 04:08:16;;;;;;;6.93;4.60;;;;;;;;;;5091701;28;20541;-58
2021/06/28 04:10:43;;;;;;;6.40;4.60;;;;;;;;;;5090776;28;20527;-58
2021/06/28 04:13:11;;;;;;;5.20;4.70;;;;;;;;;;5091104;28;20559;-59
2021/06/28 04:15:38;;;;;;;6.37;4.63;;;;;;;;;;5091147;28;20498;-58
2021/06/28 04:18:05;;;;;;;5.73;4.90;;;;;;;;;;5091008;28;20443;-59
2021/06/28 04:20:32;;;;;;;7.63;4.50;;;;;;;;;;5090768;28;20508;-58
2021/06/28 04:23:00;;;;;;;9.43;4.83;;;;;;;;;;5090792;28;20504;-58
2021/06/28 04:25:28;;;;;;;6.37;5.07;;;;;;;;;;5090586;28;20442;-58
2021/06/28 04:27:56;;;;;;;5.40;4.47;;;;;;;;;;5090291;28;20478;-56
2021/06/28 04:30:23;;;;;;;6.80;4.27;;;;;;;;;;5090319;28;20536;-59
2021/06/28 04:32:51;;;;;;;8.30;4.73;;;;;;;;;;5090469;28;20452;-59
2021/06/28 04:35:19;;;;;;;8.33;5.70;;;;;;;;;;5089998;28;20447;-58
2021/06/28 04:37:47;;;;;;;5.57;4.90;;;;;;;;;;5090279;28;20492;-57
2021/06/28 04:40:15;;;;;;;6.60;4.23;;;;;;;;;;5090059;28;20520;-57
2021/06/28 04:42:44;;;;;;;8.37;5.87;;;;;;;;;;5090159;28;20874;-58
2021/06/28 04:45:13;;;;;;;5.63;5.13;;;;;;;;;;5089877;28;20496;-58
2021/06/28 04:47:40;;;;;;;6.87;4.70;;;;;;;;;;5089701;28;21084;-58
2021/06/28 04:50:08;;;;;;;6.90;5.17;;;;;;;;;;5091493;28;20470;-59
2021/06/28 04:52:36;;;;;;;8.57;5.60;;;;;;;;;;5090217;28;20446;-59
2021/06/28 04:55:04;;;;;;;5.93;4.60;;;;;;;;;;5089699;28;20450;-58
2021/06/28 04:57:31;;;;;;;4.90;4.10;;;;;;;;;;5090775;28;20442;-58
2021/06/28 05:00:00;;;;;;;6.60;5.30;;;;;;;;;;5089700;28;20469;-60
2021/06/28 05:02:27;;;;;;;5.33;4.83;;;;;;;;;;5089559;28;20450;-57
2021/06/28 05:04:55;;;;;;;4.77;4.33;;;;;;;;;;5089779;28;20446;-57
2021/06/28 05:07:22;;;;;;;5.47;4.90;;;;;;;;;;5089208;28;20483;-58
2021/06/28 05:09:49;;;;;;;5.93;4.90;;;;;;;;;;5089712;28;20467;-59
2021/06/28 05:12:16;;;;;;;6.40;5.03;;;;;;;;;;5089694;28;20450;-58
2021/06/28 05:14:44;;;;;;;5.83;5.33;;;;;;;;;;5089576;28;20500;-59
2021/06/28 05:17:13;;;;;;;10.83;6.43;;;;;;;;;;5089664;28;20443;-59
2021/06/28 05:19:40;;;;;;;9.70;5.43;;;;;;;;;;5075765;28;20524;-58
2021/06/28 05:22:07;;;;;;;7.43;5.57;;;;;;;;;;5075654;28;20931;-58
2021/06/28 05:24:35;;;;;;;5.90;5.33;;;;;;;;;;5075593;28;20869;-61
2021/06/28 05:27:02;;;;;;;6.57;5.30;;;;;;;;;;5075572;28;20818;-60
2021/06/28 05:29:30;;;;;;;7.30;6.43;;;;;;;;;;5075670;28;20463;-61
2021/06/28 05:31:57;;;;;;;6.80;4.53;;;;;;;;;;5075474;28;20457;-58
2021/06/28 05:34:25;;;;;;;6.07;5.47;;;;;;;;;;5075562;28;20443;-60
2021/06/28 05:36:53;;;;;;;5.93;4.73;;;;;;;;;;5075357;28;20435;-60
2021/06/28 05:39:20;;;;;;;7.40;5.30;;;;;;;;;;5075584;28;20475;-61
2021/06/28 05:41:48;;;;;;;7.67;5.43;;;;;;;;;;5056236;22;20942;-55
2021/06/28 05:44:15;;;;;;;7.93;5.13;;;;;;;;;;5015718;28;20490;-55
2021/06/28 05:46:42;;;;;;;6.03;5.40;;;;;;;;;;5015698;28;20478;-55
2021/06/28 05:49:10;;;;;;;6.13;5.40;;;;;;;;;;5015707;28;20808;-55
2021/06/28 05:51:38;;;;;;;6.70;5.07;;;;;;;;;;5016120;28;20496;-54
2021/06/28 05:54:06;;;;;;;10.90;5.10;;;;;;;;;;5015028;28;20811;-54
2021/06/28 05:56:33;;;;;;;6.70;5.63;;;;;;;;;;5015193;28;20497;-54
2021/06/28 05:59:00;;;;;;;6.33;5.70;;;;;;;;;;5015673;28;20492;-55
2021/06/28 06:01:27;;;;;;;5.80;5.30;;;;;;;;;;5014744;28;21055;-53
2021/06/28 06:03:55;;;;;;;5.97;5.43;;;;;;;;;;5015110;28;20452;-54
2021/06/28 06:06:23;;;;;;;5.87;5.37;;;;;;;;;;5014999;28;20456;-52
2021/06/28 06:08:51;;;;;;;5.50;5.00;;;;;;;;;;5015855;28;20441;-55
2021/06/28 06:11:19;;;;;;;7.50;6.20;;;;;;;;;;5015492;28;20563;-54
2021/06/28 06:13:46;;;;;;;7.83;5.80;;;;;;;;;;5015026;28;20510;-59
2021/06/28 06:16:13;;;;;;;8.00;5.90;;;;;;;;;;5014779;28;20991;-54
2021/06/28 06:18:41;;;;;;;8.50;5.90;;;;;;;;;;5014790;28;20446;-54
2021/06/28 06:21:08;;;;;;;11.70;5.30;;;;;;;;;;5015169;28;20465;-55
2021/06/28 06:23:35;;;;;;;6.13;5.53;;;;;;;;;;5014572;28;21009;-57
2021/06/28 06:26:04;;;;;;;6.13;5.07;;;;;;;;;;5015352;28;20442;-54
2021/06/28 06:28:31;;;;;;;6.53;5.40;;;;;;;;;;5014454;28;20486;-53
2021/06/28 06:30:59;;;;;;;5.93;5.33;;;;;;;;;;5013567;28;20850;-55
2021/06/28 06:33:26;;;;;;;7.03;5.07;;;;;;;;;;5014351;28;20446;-54
2021/06/28 06:35:53;;;;;;;8.73;5.37;;;;;;;;;;5014593;28;20863;-56
2021/06/28 06:38:20;;;;;;;6.97;4.57;;;;;;;;;;5014267;28;20617;-55
2021/06/28 06:40:48;;;;;;;7.00;4.67;;;;;;;;;;5014030;28;20479;-55
2021/06/28 06:43:18;;;;;;;7.00;5.70;;;;;;;;;;5014521;28;20457;-55
2021/06/28 06:45:45;;;;;;;5.43;4.93;;;;;;;;;;5015954;28;20456;-55
2021/06/28 06:48:13;;;;;;;5.10;4.60;;;;;;;;;;5014603;28;20490;-57
2021/06/28 06:50:41;;;;;;;8.47;7.67;;;;;;;;;;5013471;28;20870;-55
2021/06/28 06:53:08;;;;;;;5.43;4.40;;;;;;;;;;5013721;28;20449;-55
2021/06/28 06:55:35;;;;;;;6.60;4.93;;;;;;;;;;5013769;28;20455;-57
2021/06/28 06:58:03;;;;;;;6.10;4.10;;;;;;;;;;5014242;28;20442;-55
2021/06/28 07:00:31;;;;;;;6.10;5.20;;;;;;;;;;5013624;28;20473;-54
2021/06/28 07:02:59;;;;;;;5.50;5.00;;;;;;;;;;5013871;28;20443;-54
2021/06/28 07:05:26;;;;;;;4.77;4.37;;;;;;;;;;5013796;28;20453;-55
2021/06/28 07:07:53;;;;;;;5.97;4.50;;;;;;;;;;5013585;28;20507;-55
2021/06/28 07:10:22;;;;;;;5.43;4.90;;;;;;;;;;5013417;28;20997;-54
2021/06/28 07:12:49;;;;;;;6.00;4.63;;;;;;;;;;5014193;28;20485;-55
2021/06/28 07:15:17;;;;;;;5.93;4.50;;;;;;;;;;5013651;28;20500;-56
2021/06/28 07:17:46;;;;;;;5.73;4.27;;;;;;;;;;5013797;28;20935;-55
2021/06/28 07:20:15;;;;;;;4.80;4.30;;;;;;;;;;5013599;28;20449;-55
2021/06/28 07:22:43;;;;;;;6.83;6.20;;;;;;;;;;5013632;28;20453;-57
2021/06/28 07:25:13;;;;;;;10.10;4.87;;;;;;;;;;5013901;28;20533;-55
2021/06/28 07:27:40;;;;;;;5.50;4.73;;;;;;;;;;5013337;28;20551;-55
2021/06/28 07:30:08;;;;;;;5.10;4.30;;;;;;;;;;5013313;28;20462;-55
2021/06/28 07:32:36;;;;;;;6.23;5.30;;;;;;;;;;5013508;28;20537;-53
2021/06/28 07:35:05;;;;;;;5.77;5.27;;;;;;;;;;5013324;28;20450;-53
2021/06/28 07:37:32;;;;;;;5.80;5.20;;;;;;;;;;5013802;28;20447;-55
2021/06/28 07:39:59;;;;;;;6.20;5.60;;;;;;;;;;5013661;28;20448;-56
2021/06/28 07:42:27;;;;;;;7.17;5.77;;;;;;;;;;5013519;28;20485;-55
2021/06/28 07:44:54;;;;;;;7.63;5.20;;;;;;;;;;5013607;28;20450;-56
2021/06/28 07:47:22;;;;;;;5.80;5.30;;;;;;;;;;5013435;28;20476;-55
2021/06/28 07:49:49;;;;;;;6.27;5.03;;;;;;;;;;5013227;28;20455;-54
2021/06/28 07:52:18;;;;;;;6.37;5.23;;;;;;;;;;5013437;28;20555;-54
2021/06/28 07:54:45;;;;;;;7.13;5.53;;;;;;;;;;5013502;28;20855;-54
2021/06/28 07:57:12;;;;;;;5.83;5.27;;;;;;;;;;5013355;28;20945;-55
2021/06/28 07:59:40;;;;;;;7.30;4.73;;;;;;;;;;5013517;28;20448;-55
2021/06/28 08:02:07;;;;;;;6.30;5.40;;;;;;;;;;5013424;28;20483;-54
2021/06/28 08:04:35;;;;;;;6.50;4.73;;;;;;;;;;5013400;28;20488;-55
2021/06/28 08:07:02;;;;;;;6.27;4.97;;;;;;;;;;5013142;28;20488;-54
2021/06/28 08:09:31;;;;;;;7.27;5.60;;;;;;;;;;5013418;28;20811;-54
2021/06/28 08:11:58;;;;;;;6.23;5.67;;;;;;;;;;5012766;28;20987;-54
2021/06/28 08:14:26;;;;;;;6.60;5.63;;;;;;;;;;5013080;28;20487;-54
2021/06/28 08:16:53;;;;;;;7.20;5.60;;;;;;;;;;5013320;28;20454;-55
2021/06/28 08:19:21;;;;;;;5.83;5.23;;;;;;;;;;5013175;28;20445;-54
2021/06/28 08:21:48;;;;;;;5.20;4.80;;;;;;;;;;5013063;28;20469;-55
2021/06/28 08:24:16;;;;;;;5.53;5.00;;;;;;;;;;5012836;28;20493;-55
2021/06/28 08:26:45;;;;;;;6.00;5.40;;;;;;;;;;5012686;28;20995;-55
2021/06/28 08:29:13;;;;;;;5.73;5.10;;;;;;;;;;5012438;28;20535;-54
2021/06/28 08:31:41;;;;;;;5.90;5.40;;;;;;;;;;5012634;28;21000;-54
2021/06/28 08:34:08;;;;;;;6.27;5.23;;;;;;;;;;5012803;28;20506;-54
2021/06/28 08:36:35;;;;;;;5.43;4.90;;;;;;;;;;5012770;28;20453;-54
2021/06/28 08:39:03;;;;;;;5.07;4.53;;;;;;;;;;5012781;28;20528;-54
2021/06/28 08:41:31;;;;;;;6.00;5.33;;;;;;;;;;5012704;28;20484;-54
2021/06/28 08:43:59;;;;;;;5.70;5.20;;;;;;;;;;5012333;28;20513;-56
2021/06/28 08:46:27;;;;;;;5.10;4.70;;;;;;;;;;5013019;28;20503;-55
2021/06/28 08:48:55;;;;;;;5.73;5.20;;;;;;;;;;5012431;28;20487;-55
2021/06/28 08:51:22;;;;;;;6.30;5.60;;;;;;;;;;5012110;28;20469;-56
2021/06/28 08:53:54;;;;;;;15.90;13.70;;;;;;;;;;5013787;28;20551;-56
2021/06/28 08:56:22;;;;;;;9.37;8.47;;;;;;;;;;5016317;28;20437;-58
2021/06/28 08:58:49;;;;;;;13.87;12.40;;;;;;;;;;5016576;28;20792;-56
2021/06/28 09:01:18;;;;;;;10.63;9.53;;;;;;;;;;5016190;28;20477;-54
2021/06/28 09:03:45;;;;;;;10.73;9.73;;;;;;;;;;5016473;28;20451;-54
2021/06/28 09:06:14;;;;;;;7.23;5.97;;;;;;;;;;5016413;28;20867;-54
2021/06/28 09:08:55;;;;;;;6.40;5.87;;;;;;;;;;5015813;28;20492;-54
2021/06/28 09:11:22;;;;;;;5.77;5.17;;;;;;;;;;5015782;28;20475;-55
2021/06/28 09:13:50;;;;;;;6.00;5.20;;;;;;;;;;5015783;28;20480;-54
2021/06/28 09:16:21;;;;;;;5.63;5.10;;;;;;;;;;5015944;28;20822;-54
2021/06/28 09:18:53;;;;;;;6.20;5.57;;;;;;;;;;5015723;28;20450;-54
2021/06/28 09:21:24;;;;;;;5.20;4.70;;;;;;;;;;5015608;28;20490;-54
2021/06/28 09:23:52;;;;;;;6.50;5.60;;;;;;;;;;5015498;28;20428;-55
2021/06/28 09:26:19;;;;;;;5.90;5.37;;;;;;;;;;5016138;28;20447;-54
2021/06/28 09:28:49;;;;;;;5.47;5.00;;;;;;;;;;5015454;28;21011;-55
2021/06/28 09:31:31;;;;;;;5.50;5.00;;;;;;;;;;5015692;28;20470;-53
2021/06/28 09:34:06;;;;;;;5.53;5.13;;;;;;;;;;5015846;28;20454;-55
2021/06/28 09:36:33;;;;;;;6.40;5.73;;;;;;;;;;5015412;28;20448;-54
2021/06/28 09:39:16;;;;;;;6.03;5.53;;;;;;;;;;5015524;28;20448;-55
2021/06/28 09:41:43;;;;;;;5.83;4.60;;;;;;;;;;5015000;28;20514;-55
2021/06/28 09:44:10;;;;;;;5.50;5.10;;;;;;;;;;5015189;28;20450;-55
2021/06/28 09:46:39;;;;;;;5.17;4.67;;;;;;;;;;5015290;28;20511;-55
2021/06/28 09:49:07;;;;;;;5.00;4.60;;;;;;;;;;5014948;28;20483;-58
2021/06/28 09:51:35;;;;;;;5.47;4.97;;;;;;;;;;5014953;28;20475;-55
2021/06/28 09:54:19;;;;;;;5.43;4.93;;;;;;;;;;5015033;28;20454;-54
2021/06/28 09:56:48;;;;;;;5.50;4.60;;;;;;;;;;5014854;28;20444;-56
2021/06/28 09:59:23;;;;;;;5.30;4.90;;;;;;;;;;5016543;28;20449;-56
2021/06/28 10:01:52;;;;;;;5.90;5.40;;;;;;;;;;5014863;28;20490;-54
2021/06/28 10:04:52;;;;;;;5.87;5.37;;;;;;;;;;5014674;28;20451;-56
2021/06/28 10:07:30;;;;;;;5.07;4.67;;;;;;;;;;4972101;28;20455;-57
2021/06/28 10:10:18;;;;;;;5.90;5.50;;;;;;;;;;5014553;28;20557;-57
2021/06/28 10:12:46;;;;;;;5.40;4.80;;;;;;;;;;5014821;28;20527;-56
2021/06/28 10:15:14;;;;;;;5.10;4.70;;;;;;;;;;5014378;28;20464;-57
2021/06/28 10:17:44;;;;;;;5.13;4.73;;;;;;;;;;5014601;28;20502;-55
2021/06/28 10:20:13;;;;;;;4.93;4.43;;;;;;;;;;5014238;28;21011;-57
2021/06/28 10:22:41;;;;;;;5.60;5.20;;;;;;;;;;5013737;28;20551;-55
2021/06/28 10:25:09;;;;;;;5.03;4.50;;;;;;;;;;5014080;28;20456;-57
2021/06/28 10:27:36;;;;;;;5.23;4.80;;;;;;;;;;5014091;28;20507;-57
2021/06/28 10:30:06;;;;;;;5.27;4.87;;;;;;;;;;5013880;28;21000;-57
2021/06/28 10:32:34;;;;;;;5.93;5.43;;;;;;;;;;5014112;28;20555;-56
2021/06/28 10:35:02;;;;;;;5.00;4.60;;;;;;;;;;5013805;28;20444;-56
2021/06/28 10:37:34;;;;;;;5.40;4.53;;;;;;;;;;5014215;28;20452;-57
2021/06/28 10:40:02;;;;;;;5.20;4.70;;;;;;;;;;5014130;28;20919;-56
2021/06/28 10:42:33;;;;;;;5.37;4.87;;;;;;;;;;5014110;28;21001;-56
2021/06/28 10:45:01;;;;;;;5.90;5.47;;;;;;;;;;5014393;28;20440;-57
2021/06/28 10:47:30;;;;;;;5.83;5.30;;;;;;;;;;5014113;28;20451;-57
2021/06/28 10:49:58;;;;;;;5.20;4.73;;;;;;;;;;5013589;28;20545;-57
2021/06/28 10:52:49;;;;;;;8.67;5.13;;;;;;;;;;5013738;28;20500;-57
2021/06/28 10:55:34;;;;;;;5.23;4.60;;;;;;;;;;4994540;28;20463;-57
2021/06/28 10:58:03;;;;;;;5.90;4.73;;;;;;;;;;5013855;28;20446;-57
2021/06/28 11:00:45;;;;;;;7.07;5.57;;;;;;;;;;5014301;28;20889;-57
2021/06/28 11:03:30;;;;;;;5.57;5.07;;;;;;;;;;5013589;28;20451;-54
2021/06/28 11:06:21;;;;;;;5.70;4.87;;;;;;;;;;5013939;28;20438;-56
2021/06/28 11:09:09;;;;;;;5.53;5.13;;;;;;;;;;5013783;28;20476;-56
2021/06/28 11:11:56;;;;;;;5.97;5.57;;;;;;;;;;5007421;28;20474;-55
2021/06/28 11:14:43;;;;;;;5.17;4.70;;;;;;;;;;5014106;28;20491;-56
2021/06/28 11:17:11;;;;;;;5.57;5.07;;;;;;;;;;5013294;28;20447;-57
2021/06/28 11:20:09;;;;;;;5.83;5.30;;;;;;;;;;5013229;28;20444;-56
2021/06/28 11:22:44;;;;;;;5.77;5.37;;;;;;;;;;5013183;28;20432;-58
2021/06/28 11:25:29;;;;;;;5.83;4.47;;;;;;;;;;5013806;28;20476;-55
2021/06/28 11:28:16;;;;;;;4.93;4.53;;;;;;;;;;5013243;28;20500;-56
2021/06/28 11:30:49;;;;;;;5.17;4.77;;;;;;;;;;5013187;28;20528;-56
2021/06/28 11:33:17;;;;;;;5.40;5.00;;;;;;;;;;5013062;28;20838;-56
2021/06/28 11:35:45;;;;;;;5.87;5.47;;;;;;;;;;5013848;28;20438;-56
2021/06/28 11:38:13;;;;;;;6.87;5.50;;;;;;;;;;5013216;28;20858;-55
2021/06/28 11:40:42;;;;;;;5.33;4.87;;;;;;;;;;5012849;28;20490;-56
2021/06/28 11:43:10;;;;;;;4.93;4.53;;;;;;;;;;5013302;28;20445;-57
2021/06/28 11:45:47;;;;;;;4.90;4.60;;;;;;;;;;5050323;22;20550;-62
2021/06/28 11:48:31;;;;;;;5.77;5.13;;;;;;;;;;5033175;28;20920;-62
2021/06/28 11:50:59;;;;;;;4.60;4.30;;;;;;;;;;5033474;28;20884;-62
2021/06/28 11:53:26;;;;;;;4.53;4.23;;;;;;;;;;5033429;28;20917;-62
2021/06/28 11:55:54;;;;;;;4.03;3.73;;;;;;;;;;5033692;28;20461;-61
2021/06/28 11:58:23;;;;;;;4.47;4.17;;;;;;;;;;5033387;28;20518;-61
2021/06/28 12:00:51;;;;;;;4.60;4.07;;;;;;;;;;5033641;28;20452;-61
2021/06/28 12:03:24;;;;;;;5.10;4.60;;;;;;;;;;5034155;28;20448;-60
2021/06/28 12:05:53;;;;;;;5.30;4.80;;;;;;;;;;5033463;28;20468;-60
2021/06/28 12:08:24;;;;;;;6.13;5.53;;;;;;;;;;5034261;28;20543;-61
2021/06/28 12:10:55;;;;;;;5.57;5.17;;;;;;;;;;5033110;28;20455;-61
2021/06/28 12:13:29;;;;;;;7.67;5.30;;;;;;;;;;5033133;28;20468;-61
2021/06/28 12:15:56;;;;;;;6.27;5.77;;;;;;;;;;5032826;28;20546;-59
2021/06/28 12:18:23;;;;;;;5.70;5.30;;;;;;;;;;5032839;28;20506;-62
2021/06/28 12:20:58;;;;;;;6.10;5.53;;;;;;;;;;5032342;28;20448;-62
2021/06/28 12:23:25;;;;;;;6.10;5.63;;;;;;;;;;5032776;28;20432;-60
2021/06/28 12:25:53;;;;;;;6.53;5.80;;;;;;;;;;5032364;28;20518;-62
2021/06/28 12:28:28;;;;;;;5.80;5.30;;;;;;;;;;5034305;28;20502;-60
2021/06/28 12:30:56;;;;;;;6.20;5.77;;;;;;;;;;5036891;28;20424;-62
2021/06/28 12:33:23;;;;;;;5.83;5.43;;;;;;;;;;5036490;28;20956;-60
2021/06/28 12:35:59;;;;;;;5.23;4.83;;;;;;;;;;5036590;28;20460;-61
2021/06/28 12:38:29;;;;;;;6.90;6.40;;;;;;;;;;5036462;28;20428;-61
2021/06/28 12:40:56;;;;;;;8.40;5.80;;;;;;;;;;5036337;28;20444;-62
2021/06/28 12:43:25;;;;;;;5.80;5.30;;;;;;;;;;5036588;28;20490;-61
2021/06/28 12:45:56;;;;;;;7.30;6.10;;;;;;;;;;5036109;28;20483;-61
2021/06/28 12:48:25;;;;;;;5.70;4.87;;;;;;;;;;5036216;28;20431;-60
2021/06/28 12:50:53;;;;;;;6.90;6.30;;;;;;;;;;5035795;28;20484;-61
2021/06/28 12:53:22;;;;;;;6.10;5.70;;;;;;;;;;5036043;28;20449;-62
2021/06/28 12:55:50;;;;;;;6.53;6.03;;;;;;;;;;5036289;28;20465;-61
2021/06/28 12:58:18;;;;;;;6.30;5.80;;;;;;;;;;5035998;28;20507;-62
2021/06/28 13:00:47;;;;;;;10.90;6.00;;;;;;;;;;5036014;28;20452;-61
2021/06/28 13:03:15;;;;;;;7.00;6.40;;;;;;;;;;5036018;28;20453;-61
2021/06/28 13:05:48;;;;;;;6.60;6.10;;;;;;;;;;5035493;28;20476;-62
2021/06/28 13:08:17;;;;;;;6.70;6.10;;;;;;;;;;5035768;28;20923;-62
2021/06/28 13:10:56;;;;;;;7.27;6.67;;;;;;;;;;5035948;28;20840;-61
2021/06/28 13:13:25;;;;;;;6.30;5.80;;;;;;;;;;5035731;28;20805;-62
2021/06/28 13:16:09;;;;;;;6.37;5.77;;;;;;;;;;5035901;28;20464;-62
2021/06/28 13:18:37;;;;;;;6.50;5.90;;;;;;;;;;5036285;28;20794;-61
2021/06/28 13:21:14;;;;;;;6.97;6.10;;;;;;;;;;5036212;28;20456;-60
2021/06/28 13:23:41;;;;;;;7.77;6.73;;;;;;;;;;5036121;28;20454;-61
2021/06/28 13:26:13;;;;;;;7.20;6.60;;;;;;;;;;5035497;28;20488;-59
2021/06/28 13:28:40;;;;;;;8.60;6.33;;;;;;;;;;5035690;28;21012;-59
2021/06/28 13:31:08;;;;;;;6.93;6.40;;;;;;;;;;5035813;28;20454;-60
2021/06/28 13:33:35;;;;;;;7.10;6.50;;;;;;;;;;5035501;28;20446;-60
2021/06/28 13:36:12;;;;;;;8.27;7.57;;;;;;;;;;5035455;28;20468;-60
2021/06/28 13:38:51;;;;;;;6.97;6.47;;;;;;;;;;5035394;28;20443;-61
2021/06/28 13:41:20;;;;;;;7.17;6.60;;;;;;;;;;5035915;28;20438;-59
2021/06/28 13:43:47;;;;;;;7.50;6.90;;;;;;;;;;5035743;28;20455;-60
2021/06/28 13:46:26;;;;;;;7.20;6.70;;;;;;;;;;5035332;28;20476;-60
2021/06/28 13:48:53;;;;;;;7.07;6.57;;;;;;;;;;5035661;28;20482;-60
2021/06/28 13:51:21;;;;;;;7.73;7.10;;;;;;;;;;5035768;28;20444;-60
2021/06/28 13:53:48;;;;;;;7.67;6.93;;;;;;;;;;5035164;28;20447;-61
2021/06/28 13:56:15;;;;;;;6.93;6.43;;;;;;;;;;5035325;28;20559;-61
2021/06/28 13:58:44;;;;;;;8.27;7.47;;;;;;;;;;5035094;28;20452;-61
2021/06/28 14:01:12;;;;;;;7.50;6.93;;;;;;;;;;5035535;28;20443;-60
2021/06/28 14:03:39;;;;;;;8.40;7.73;;;;;;;;;;5034966;28;20930;-59
2021/06/28 14:06:06;;;;;;;7.90;7.20;;;;;;;;;;5035031;28;20469;-61
2021/06/28 14:08:33;;;;;;;7.73;7.03;;;;;;;;;;5034853;28;20824;-60
2021/06/28 14:11:01;;;;;;;7.40;6.80;;;;;;;;;;5034622;28;20997;-60
2021/06/28 14:13:28;;;;;;;7.43;6.80;;;;;;;;;;5035036;28;20517;-60
2021/06/28 14:15:57;;;;;;;7.67;7.07;;;;;;;;;;5035330;28;20465;-62
2021/06/28 14:18:24;;;;;;;7.60;6.90;;;;;;;;;;5035243;28;20443;-60
2021/06/28 14:20:53;;;;;;;8.63;7.87;;;;;;;;;;5034464;28;20507;-60
2021/06/28 14:23:20;;;;;;;7.00;6.50;;;;;;;;;;5034646;28;20923;-60
2021/06/28 14:25:47;;;;;;;7.20;6.63;;;;;;;;;;5034329;28;20479;-62
2021/06/28 14:28:16;;;;;;;7.17;6.67;;;;;;;;;;5034949;28;20446;-60
2021/06/28 14:30:43;;;;;;;8.57;6.50;;;;;;;;;;5035178;28;20509;-61
2021/06/28 14:33:12;;;;;;;7.00;6.30;;;;;;;;;;5034153;28;20848;-61
2021/06/28 14:35:39;;;;;;;5.90;5.40;;;;;;;;;;5034112;28;20475;-62
2021/06/28 14:38:08;;;;;;;6.13;5.63;;;;;;;;;;5034478;28;20451;-61
2021/06/28 14:40:35;;;;;;;6.90;6.40;;;;;;;;;;5034107;28;20456;-62
2021/06/28 14:43:03;;;;;;;7.00;6.30;;;;;;;;;;5034029;28;20939;-61
2021/06/28 14:45:30;;;;;;;6.90;6.40;;;;;;;;;;5033813;28;20490;-61
2021/06/28 14:47:58;;;;;;;6.97;6.30;;;;;;;;;;5033251;28;20948;-61
2021/06/28 14:50:27;;;;;;;10.87;7.00;;;;;;;;;;5033986;28;20514;-61
2021/06/28 14:52:54;;;;;;;6.10;5.50;;;;;;;;;;5034053;28;20439;-62
2021/06/28 14:55:21;;;;;;;7.00;6.40;;;;;;;;;;5033817;28;21034;-62
2021/06/28 14:57:49;;;;;;;6.73;6.20;;;;;;;;;;5034162;28;20930;-62